Time;durP1;ratioP1;P1;durP2;ratioP2;P2;SDS_P1;SDS_P2;PMS_P1;PMS_P2;Temp;Humidity;BMP_temperature;BMP_pressure;BME280_temperature;BME280_humidity;BME280_pressure;Samples;Min_cycle;Max_cycle;Signal;HPM_P1;HPM_P2
2023/12/24 00:02:11;;;;;;;1.50;1.40;;;;;;;4.19;100.00;100032.47;6181388;28;20233;-67
2023/12/24 00:05:33;;;;;;;1.60;1.50;;;;;;;4.10;100.00;100038.47;6189475;28;20242;-68
2023/12/24 00:08:53;;;;;;;1.80;1.70;;;;;;;4.00;100.00;100027.69;6190033;28;20229;-68
2023/12/24 00:12:16;;;;;;;2.67;1.70;;;;;;;4.11;100.00;100038.34;6182526;28;20268;-68
2023/12/24 00:15:37;;;;;;;2.13;1.90;;;;;;;4.05;100.00;100023.69;6190266;28;20592;-69
2023/12/24 00:18:58;;;;;;;1.33;1.30;;;;;;;4.14;100.00;100030.13;6191511;28;20253;-68
2023/12/24 00:22:19;;;;;;;1.60;1.50;;;;;;;4.18;100.00;100036.06;6188258;28;20264;-68
2023/12/24 00:25:40;;;;;;;1.50;1.40;;;;;;;4.23;100.00;100029.44;6192747;28;20234;-68
2023/12/24 00:29:03;;;;;;;2.27;1.53;;;;;;;4.12;100.00;100016.06;6194684;28;21193;-68
2023/12/24 00:32:24;;;;;;;1.70;1.60;;;;;;;3.96;100.00;99999.53;6197823;28;20226;-68
2023/12/24 00:35:44;;;;;;;2.43;2.23;;;;;;;4.12;100.00;99993.88;6200500;28;20607;-68
2023/12/24 00:39:05;;;;;;;1.27;1.17;;;;;;;4.21;100.00;100011.84;6198971;28;20236;-68
2023/12/24 00:42:26;;;;;;;1.73;1.63;;;;;;;4.08;100.00;99990.59;6199799;28;20238;-68
2023/12/24 00:45:48;;;;;;;1.17;1.10;;;;;;;4.03;100.00;99988.28;6196033;28;20233;-68
2023/12/24 00:49:09;;;;;;;1.37;1.23;;;;;;;4.21;100.00;100006.53;6189638;28;20242;-69
2023/12/24 00:52:30;;;;;;;1.23;1.23;;;;;;;4.27;100.00;100000.72;6195758;28;20633;-69
2023/12/24 00:55:51;;;;;;;1.10;1.10;;;;;;;4.33;100.00;100000.25;6192467;28;20608;-68
2023/12/24 00:59:12;;;;;;;1.20;1.13;;;;;;;4.40;100.00;99998.81;6196911;28;20619;-67
2023/12/24 01:02:35;;;;;;;1.53;1.43;;;;;;;4.40;100.00;99993.47;6192958;28;20228;-68
2023/12/24 01:05:55;;;;;;;0.93;0.93;;;;;;;4.63;100.00;99989.84;6197081;28;20225;-68
2023/12/24 01:09:16;;;;;;;1.60;1.50;;;;;;;4.64;100.00;99989.72;6193969;28;20238;-68
2023/12/24 01:12:38;;;;;;;2.50;2.07;;;;;;;4.84;100.00;99978.31;6195605;28;20226;-67
2023/12/24 01:16:00;;;;;;;1.70;1.60;;;;;;;4.77;100.00;99982.47;6183163;28;20241;-68
2023/12/24 01:19:23;;;;;;;2.57;2.37;;;;;;;4.96;100.00;99983.66;6190132;28;20297;-68
2023/12/24 01:22:44;;;;;;;2.23;2.10;;;;;;;4.81;100.00;99986.59;6193634;28;20229;-68
2023/12/24 01:26:05;;;;;;;2.70;2.50;;;;;;;4.71;100.00;99980.25;6203038;28;20237;-68
2023/12/24 01:29:25;;;;;;;1.87;1.77;;;;;;;4.88;100.00;99970.94;6197346;28;20269;-67
2023/12/24 01:32:46;;;;;;;2.77;2.57;;;;;;;4.83;100.00;99971.28;6200066;28;20252;-68
2023/12/24 01:36:09;;;;;;;2.80;2.37;;;;;;;4.83;100.00;99976.63;6191996;28;20238;-69
2023/12/24 01:39:32;;;;;;;2.33;2.23;;;;;;;4.77;100.00;99968.25;6183783;28;20233;-68
2023/12/24 01:42:53;;;;;;;2.70;2.50;;;;;;;4.82;100.00;99968.72;6201420;28;20221;-69
2023/12/24 01:46:19;;;;;;;1.80;1.67;;;;;;;4.78;100.00;99968.13;6193075;28;20237;-68
2023/12/24 01:49:42;;;;;;;2.77;2.57;;;;;;;4.83;100.00;99965.09;6182641;28;20224;-68
2023/12/24 01:53:05;;;;;;;2.93;2.67;;;;;;;4.81;100.00;99949.22;6196131;28;20563;-69
2023/12/24 01:56:27;;;;;;;2.83;2.63;;;;;;;4.97;100.00;99937.28;6187045;28;20608;-69
2023/12/24 01:59:50;;;;;;;2.90;2.67;;;;;;;4.99;100.00;99935.31;6182929;28;20226;-69
2023/12/24 02:03:11;;;;;;;2.80;2.60;;;;;;;5.05;100.00;99933.00;6200865;28;20238;-69
2023/12/24 02:06:33;;;;;;;3.37;3.10;;;;;;;5.06;100.00;99931.19;6184181;28;20568;-69
2023/12/24 02:09:55;;;;;;;2.77;2.57;;;;;;;5.17;100.00;99929.38;6187134;28;20607;-68
2023/12/24 02:13:17;;;;;;;2.30;2.10;;;;;;;5.37;100.00;99925.03;6186677;28;20230;-69
2023/12/24 02:16:40;;;;;;;1.90;1.80;;;;;;;5.64;100.00;99923.59;6186906;28;20244;-68
2023/12/24 02:20:01;;;;;;;2.03;1.93;;;;;;;6.43;100.00;99923.00;6184720;28;20324;-68
2023/12/24 02:23:23;;;;;;;1.53;1.13;;;;;;;7.04;100.00;99906.88;6190632;28;20316;-67
2023/12/24 02:26:56;;;;;;;0.73;0.60;;;;;;;7.28;100.00;99909.19;6184111;28;20327;-69
2023/12/24 02:30:21;;;;;;;1.33;0.70;;;;;;;7.55;100.00;99904.81;6188568;28;20230;-68
2023/12/24 02:33:43;;;;;;;1.50;0.30;;;;;;;7.75;100.00;99886.91;6184130;28;20245;-68
2023/12/24 02:37:05;;;;;;;0.33;0.33;;;;;;;7.81;100.00;99889.00;6190339;28;20619;-69
2023/12/24 02:40:28;;;;;;;0.40;0.40;;;;;;;7.93;76.73;99890.53;6189006;28;20229;-69
2023/12/24 02:43:48;;;;;;;0.30;0.30;;;;;;;7.97;34.70;99881.22;6197612;28;20756;-69
2023/12/24 02:47:10;;;;;;;1.60;1.27;;;;;;;7.86;18.85;99887.56;6197804;28;20245;-69
2023/12/24 02:50:30;;;;;;;0.30;0.30;;;;;;;8.02;3.72;99892.38;6194092;28;20352;-69
2023/12/24 02:53:51;;;;;;;0.50;0.50;;;;;;;7.98;0.00;99894.50;6194615;28;20233;-69
2023/12/24 02:57:13;;;;;;;0.67;0.60;;;;;;;8.01;0.00;99890.66;6192295;28;20229;-69
2023/12/24 03:00:34;;;;;;;0.30;0.30;;;;;;;8.10;0.00;99887.13;6191538;28;20241;-69
2023/12/24 03:03:55;;;;;;;0.37;0.37;;;;;;;8.08;0.00;99886.41;6199801;28;20513;-68
2023/12/24 03:07:16;;;;;;;0.40;0.40;;;;;;;8.12;0.00;99874.41;6181670;28;20261;-69
2023/12/24 03:10:36;;;;;;;1.40;0.60;;;;;;;8.02;0.00;99878.94;6188304;28;20623;-69
2023/12/24 03:13:58;;;;;;;0.50;0.50;;;;;;;8.10;0.00;99873.69;6195754;28;20514;-70
2023/12/24 03:17:19;;;;;;;1.27;0.50;;;;;;;8.15;0.00;99875.94;6189828;28;20234;-69
2023/12/24 03:20:40;;;;;;;0.40;0.40;;;;;;;8.16;0.00;99870.44;6192641;28;20233;-69
2023/12/24 03:24:02;;;;;;;0.40;0.40;;;;;;;8.22;0.00;99890.50;6205252;28;20255;-69
2023/12/24 03:27:23;;;;;;;0.70;0.70;;;;;;;8.15;0.00;99866.06;6180916;28;20226;-69
2023/12/24 03:30:45;;;;;;;0.57;0.57;;;;;;;8.18;0.00;99865.75;6191333;28;20222;-69
2023/12/24 03:34:06;;;;;;;0.30;0.30;;;;;;;8.19;0.00;99861.25;6208788;28;20242;-69
2023/12/24 03:37:27;;;;;;;0.50;0.50;;;;;;;8.21;0.00;99857.44;6206089;28;20255;-68
2023/12/24 03:40:48;;;;;;;0.60;0.60;;;;;;;8.17;0.00;99850.66;6183962;28;20265;-68
2023/12/24 03:44:11;;;;;;;0.37;0.37;;;;;;;8.24;0.00;99862.50;6204270;28;20320;-68
2023/12/24 03:47:33;;;;;;;0.80;0.80;;;;;;;8.23;0.00;99851.91;6192478;28;20242;-68
2023/12/24 03:50:54;;;;;;;0.40;0.40;;;;;;;8.23;0.00;99847.38;6190453;28;20230;-68
2023/12/24 03:54:15;;;;;;;0.80;0.80;;;;;;;8.28;0.00;99841.63;6198523;28;20230;-69
2023/12/24 03:57:36;;;;;;;0.53;0.53;;;;;;;8.25;0.00;99842.75;6189804;28;20233;-69
2023/12/24 04:00:56;;;;;;;0.60;0.60;;;;;;;8.23;0.00;99843.84;6197871;28;20221;-69
2023/12/24 04:04:19;;;;;;;0.40;0.40;;;;;;;8.28;0.00;99831.69;6188929;28;20229;-69
2023/12/24 04:07:39;;;;;;;0.53;0.53;;;;;;;8.27;0.00;99847.97;6190352;28;20521;-69
2023/12/24 04:11:00;;;;;;;1.10;1.10;;;;;;;8.26;0.00;99843.59;6189344;28;20242;-68
2023/12/24 04:14:21;;;;;;;7.00;1.47;;;;;;;8.28;0.00;99839.75;6217834;28;20238;-68
2023/12/24 04:17:42;;;;;;;0.60;0.60;;;;;;;8.31;0.00;99842.16;6197551;28;20566;-68
2023/12/24 04:21:04;;;;;;;1.27;1.17;;;;;;;8.28;0.00;99855.88;6191214;28;20718;-69
2023/12/24 04:24:26;;;;;;;0.60;0.60;;;;;;;8.38;0.00;99845.97;6187045;28;20241;-69
2023/12/24 04:27:48;;;;;;;1.10;0.97;;;;;;;8.45;0.00;99838.16;6199730;28;20233;-68
2023/12/24 04:31:08;;;;;;;0.60;0.60;;;;;;;8.41;0.00;99836.75;6194779;28;20598;-69
2023/12/24 04:34:31;;;;;;;0.80;0.80;;;;;;;8.45;0.00;99849.72;6192048;28;20623;-68
2023/12/24 04:37:54;;;;;;;0.60;0.60;;;;;;;8.44;0.00;99841.81;6188885;28;20221;-68
2023/12/24 04:41:16;;;;;;;0.80;0.80;;;;;;;8.42;0.00;99825.03;6199788;28;20230;-68
2023/12/24 04:44:38;;;;;;;1.47;0.60;;;;;;;8.43;0.00;99822.19;6209806;28;20333;-68
2023/12/24 04:48:03;;;;;;;1.40;0.60;;;;;;;8.40;0.00;99819.81;6203324;28;20320;-68
2023/12/24 04:51:24;;;;;;;0.80;0.80;;;;;;;8.44;0.00;99828.41;6210655;28;20234;-68
2023/12/24 04:54:46;;;;;;;0.50;0.50;;;;;;;8.46;0.00;99821.03;6192270;28;20229;-68
2023/12/24 04:58:06;;;;;;;0.70;0.70;;;;;;;8.45;0.00;99828.25;6197101;28;20233;-67
2023/12/24 05:01:27;;;;;;;0.60;0.60;;;;;;;8.47;0.00;99825.44;6196857;28;20286;-67
2023/12/24 05:04:49;;;;;;;0.67;0.67;;;;;;;8.49;0.00;99829.63;6196673;28;20230;-68
2023/12/24 05:08:11;;;;;;;0.40;0.40;;;;;;;8.46;0.00;99829.94;6194012;28;20238;-68
2023/12/24 05:11:34;;;;;;;0.50;0.40;;;;;;;8.47;0.00;99825.44;6195734;28;20249;-68
2023/12/24 05:14:55;;;;;;;0.73;0.40;;;;;;;8.48;0.00;99817.22;6191871;28;20226;-68
2023/12/24 05:18:16;;;;;;;0.97;0.73;;;;;;;8.46;0.00;99819.22;6192221;28;20225;-68
2023/12/24 05:21:36;;;;;;;0.60;0.60;;;;;;;8.48;0.00;99825.28;6198244;28;20233;-68
2023/12/24 05:24:57;;;;;;;0.90;0.60;;;;;;;8.48;0.00;99821.72;6189405;28;20229;-68
2023/12/24 05:28:19;;;;;;;0.43;0.43;;;;;;;8.49;0.00;99824.25;6188228;28;20234;-68
2023/12/24 05:31:41;;;;;;;0.77;0.77;;;;;;;8.51;0.00;99821.44;6189906;28;20238;-68
2023/12/24 05:35:02;;;;;;;0.67;0.67;;;;;;;8.53;0.00;99814.91;6191471;28;20620;-68
2023/12/24 05:38:23;;;;;;;0.50;0.50;;;;;;;8.52;0.00;99818.59;6185502;28;20226;-68
2023/12/24 05:41:44;;;;;;;0.50;0.50;;;;;;;8.65;0.00;99813.75;6188900;28;20263;-68
2023/12/24 05:45:11;;;;;;;0.50;0.50;;;;;;;8.61;0.00;99800.75;6189126;28;20237;-67
2023/12/24 05:48:32;;;;;;;0.40;0.40;;;;;;;8.57;0.00;99788.63;6188599;28;20239;-66
2023/12/24 05:51:52;;;;;;;0.50;0.50;;;;;;;8.56;0.00;99792.28;6187303;28;20225;-68
2023/12/24 05:55:13;;;;;;;0.60;0.60;;;;;;;8.56;0.00;99781.53;6187280;28;20236;-68
2023/12/24 05:58:34;;;;;;;0.60;0.60;;;;;;;8.57;0.00;99789.44;6192160;28;20233;-68
2023/12/24 06:01:57;;;;;;;0.67;0.67;;;;;;;8.56;0.00;99786.91;6189866;28;20233;-68
2023/12/24 06:05:18;;;;;;;0.50;0.50;;;;;;;8.57;0.00;99781.38;6193224;28;20630;-68
2023/12/24 06:08:39;;;;;;;0.43;0.43;;;;;;;8.55;0.00;99785.25;6194043;28;20241;-68
2023/12/24 06:11:59;;;;;;;0.40;0.40;;;;;;;8.57;0.00;99791.31;6185531;28;20238;-68
2023/12/24 06:15:20;;;;;;;0.43;0.43;;;;;;;8.60;0.00;99780.25;6186427;28;20233;-68
2023/12/24 06:18:43;;;;;;;0.37;0.37;;;;;;;8.60;0.00;99780.25;6189022;28;20510;-68
2023/12/24 06:22:05;;;;;;;0.40;0.40;;;;;;;8.63;0.00;99782.63;6189052;28;20230;-68
2023/12/24 06:25:26;;;;;;;0.47;0.47;;;;;;;8.64;0.00;99776.25;6182551;28;20222;-68
2023/12/24 06:28:47;;;;;;;0.60;0.60;;;;;;;8.65;0.00;99772.59;6186743;28;20699;-68
2023/12/24 06:32:08;;;;;;;0.80;0.80;;;;;;;8.65;0.00;99773.44;6187595;28;20229;-68
2023/12/24 06:35:30;;;;;;;0.53;0.53;;;;;;;8.66;0.00;99774.25;6195023;28;20236;-68
2023/12/24 06:38:50;;;;;;;0.63;0.60;;;;;;;8.64;0.00;99777.09;6193895;28;20241;-66
2023/12/24 06:42:11;;;;;;;0.50;0.50;;;;;;;8.66;0.00;99769.75;6191520;28;20606;-68
2023/12/24 06:45:32;;;;;;;0.50;0.50;;;;;;;8.70;0.00;99762.22;6193771;28;20229;-68
2023/12/24 06:48:53;;;;;;;0.60;0.60;;;;;;;8.68;0.00;99765.06;6191260;28;20242;-69
2023/12/24 06:52:16;;;;;;;0.50;0.50;;;;;;;8.73;0.00;99764.63;6192269;28;20654;-69
2023/12/24 06:55:37;;;;;;;0.70;0.70;;;;;;;8.72;0.00;99757.53;6195979;28;20644;-68
2023/12/24 06:58:58;;;;;;;0.63;0.63;;;;;;;8.76;0.00;99773.19;6189505;28;20230;-68
2023/12/24 07:02:19;;;;;;;0.53;0.53;;;;;;;8.79;0.00;99767.53;6171784;28;20256;-67
2023/12/24 07:05:40;;;;;;;1.20;1.13;;;;;;;8.77;0.00;99761.47;6191927;28;20898;-68
2023/12/24 07:09:03;;;;;;;0.87;0.87;;;;;;;8.76;0.00;99746.34;6191748;28;20229;-68
2023/12/24 07:12:24;;;;;;;0.67;0.67;;;;;;;8.79;0.00;99755.94;6185508;28;20281;-68
2023/12/24 07:15:45;;;;;;;0.60;0.60;;;;;;;8.77;0.00;99748.03;6192621;28;20234;-67
2023/12/24 07:19:08;;;;;;;0.80;0.80;;;;;;;8.80;0.00;99760.34;6187484;28;20238;-68
2023/12/24 07:22:29;;;;;;;0.67;0.67;;;;;;;8.77;0.00;99741.81;6183563;28;20254;-67
2023/12/24 07:25:51;;;;;;;0.80;0.80;;;;;;;8.79;0.00;99735.28;6190631;28;20226;-68
2023/12/24 07:29:12;;;;;;;0.90;0.90;;;;;;;8.83;0.00;99741.19;6187571;28;20241;-68
2023/12/24 07:32:33;;;;;;;0.87;0.87;;;;;;;8.83;0.00;99743.88;6189663;28;20226;-68
2023/12/24 07:35:54;;;;;;;0.90;0.90;;;;;;;8.82;0.00;99739.53;6196755;28;20608;-68
2023/12/24 07:39:15;;;;;;;0.60;0.60;;;;;;;8.82;0.00;99726.09;6187828;28;20268;-68
2023/12/24 07:42:38;;;;;;;0.60;0.60;;;;;;;8.84;0.00;99726.78;6197196;28;20230;-67
2023/12/24 07:45:59;;;;;;;0.70;0.70;;;;;;;8.87;0.00;99737.22;6190525;28;20225;-68
2023/12/24 07:49:19;;;;;;;0.93;0.77;;;;;;;8.87;0.00;99737.22;6189970;28;20229;-67
2023/12/24 07:52:40;;;;;;;0.90;0.90;;;;;;;8.88;0.00;99727.31;6192167;28;20234;-68
2023/12/24 07:56:01;;;;;;;0.73;0.73;;;;;;;8.89;0.00;99729.00;6192983;28;20500;-68
2023/12/24 07:59:23;;;;;;;0.70;0.70;;;;;;;8.90;0.00;99718.09;6192122;28;20584;-68
2023/12/24 08:02:44;;;;;;;0.70;0.70;;;;;;;8.92;0.00;99726.00;6191867;28;20524;-68
2023/12/24 08:06:06;;;;;;;0.93;0.93;;;;;;;8.97;0.00;99721.03;6187201;28;20261;-68
2023/12/24 08:09:27;;;;;;;0.90;0.90;;;;;;;8.98;0.00;99711.94;6181558;28;20234;-68
2023/12/24 08:12:47;;;;;;;1.10;0.90;;;;;;;9.01;0.00;99720.53;6192051;28;20278;-68
2023/12/24 08:16:10;;;;;;;1.03;1.03;;;;;;;9.00;0.00;99713.47;6192446;28;20234;-68
2023/12/24 08:19:30;;;;;;;0.70;0.70;;;;;;;9.00;0.00;99708.09;6181002;28;20261;-68
2023/12/24 08:22:51;;;;;;;0.67;0.67;;;;;;;9.01;0.00;99708.97;6187696;28;20230;-68
2023/12/24 08:26:12;;;;;;;0.63;0.63;;;;;;;9.00;0.00;99723.38;6187754;28;20255;-68
2023/12/24 08:29:34;;;;;;;0.73;0.73;;;;;;;9.02;0.00;99710.63;6187534;28;20884;-68
2023/12/24 08:32:56;;;;;;;1.10;1.00;;;;;;;9.04;0.00;99716.69;6192166;28;20764;-68
2023/12/24 08:36:17;;;;;;;0.80;0.80;;;;;;;9.05;0.00;99724.63;6186794;28;20233;-68
2023/12/24 08:39:38;;;;;;;1.57;1.00;;;;;;;9.09;0.00;99704.50;6191382;28;20237;-68
2023/12/24 08:42:59;;;;;;;0.93;0.93;;;;;;;9.08;0.00;99716.25;6190602;28;20222;-69
2023/12/24 08:46:20;;;;;;;0.90;0.90;;;;;;;9.10;0.00;99714.25;6185370;28;20242;-69
2023/12/24 08:49:42;;;;;;;0.77;0.77;;;;;;;9.13;0.00;99703.19;6194846;28;20265;-69
2023/12/24 08:53:03;;;;;;;0.80;0.80;;;;;;;9.15;0.00;99694.97;6186793;28;20253;-69
2023/12/24 08:56:24;;;;;;;0.70;0.70;;;;;;;9.20;0.00;99708.78;6186135;28;20256;-69
2023/12/24 08:59:45;;;;;;;0.90;0.87;;;;;;;9.21;0.00;99694.31;6176142;28;20489;-68
2023/12/24 09:03:06;;;;;;;0.80;0.80;;;;;;;9.23;0.00;99692.31;6188109;28;20514;-68
2023/12/24 09:06:28;;;;;;;0.67;0.67;;;;;;;9.23;0.00;99697.69;6191649;28;20242;-69
2023/12/24 09:09:51;;;;;;;0.70;0.70;;;;;;;9.26;0.00;99703.59;6187309;28;20238;-68
2023/12/24 09:13:12;;;;;;;1.60;0.90;;;;;;;9.26;0.00;99708.97;6188383;28;20608;-68
2023/12/24 09:16:32;;;;;;;0.80;0.80;;;;;;;9.26;0.00;99695.53;6190559;28;20500;-68
2023/12/24 09:19:53;;;;;;;0.93;0.93;;;;;;;9.32;0.00;99696.78;6188812;28;20309;-68
2023/12/24 09:23:15;;;;;;;0.60;0.60;;;;;;;9.33;0.00;99712.75;6187664;28;20579;-68
2023/12/24 09:26:36;;;;;;;0.97;0.97;;;;;;;9.36;0.00;99687.38;6185442;28;20241;-68
2023/12/24 09:30:03;;;;;;;0.80;0.80;;;;;;;9.37;0.00;99707.88;6187918;28;20712;-68
2023/12/24 09:33:24;;;;;;;0.97;0.97;;;;;;;9.38;0.00;99710.44;6188969;28;20227;-68
2023/12/24 09:36:45;;;;;;;0.90;0.90;;;;;;;9.38;0.00;99707.75;6188796;28;20241;-68
2023/12/24 09:40:08;;;;;;;0.90;0.90;;;;;;;9.38;0.00;99718.50;6188562;28;20249;-68
2023/12/24 09:43:30;;;;;;;1.00;1.00;;;;;;;9.40;0.00;99719.19;6191310;28;20226;-69
2023/12/24 09:46:51;;;;;;;0.70;0.70;;;;;;;9.44;0.00;99700.88;6192291;28;20241;-69
2023/12/24 09:50:12;;;;;;;0.87;0.87;;;;;;;9.47;0.00;99705.97;6189177;28;20249;-68
2023/12/24 09:53:33;;;;;;;0.80;0.80;;;;;;;9.53;0.00;99700.78;6191214;28;20698;-69
2023/12/24 09:56:56;;;;;;;0.80;0.70;;;;;;;9.54;0.00;99694.41;6187183;28;20237;-68
2023/12/24 10:00:18;;;;;;;0.73;0.73;;;;;;;9.57;0.00;99694.06;6192898;28;20257;-68
2023/12/24 10:03:38;;;;;;;0.93;0.93;;;;;;;9.61;0.00;99700.84;6194666;28;20627;-69
2023/12/24 10:07:00;;;;;;;1.13;1.10;;;;;;;9.63;0.00;99708.75;6194659;28;20234;-68
2023/12/24 10:10:30;;;;;;;0.63;0.63;;;;;;;9.69;0.00;99691.97;6191051;28;20296;-68
2023/12/24 10:14:00;;;;;;;0.83;0.83;;;;;;;9.73;0.00;99704.09;6187649;28;20261;-69
2023/12/24 10:17:27;;;;;;;4.00;0.90;;;;;;;9.74;0.00;99711.19;6195422;28;20229;-69
2023/12/24 10:20:49;;;;;;;0.50;0.50;;;;;;;9.77;0.00;99686.63;6191749;28;20225;-69
2023/12/24 10:24:09;;;;;;;0.60;0.60;;;;;;;9.80;0.00;99686.31;6191941;28;20675;-67
2023/12/24 10:27:30;;;;;;;0.77;0.77;;;;;;;9.83;0.00;99682.44;6194506;28;20553;-69
2023/12/24 10:31:05;;;;;;;0.63;0.63;;;;;;;9.88;0.00;99663.97;6189521;28;20234;-69
2023/12/24 10:34:26;;;;;;;0.77;0.77;;;;;;;9.90;0.00;99673.56;6188381;28;20512;-69
2023/12/24 10:37:48;;;;;;;0.60;0.60;;;;;;;9.91;0.00;99669.03;6197553;28;20233;-68
2023/12/24 10:41:08;;;;;;;0.47;0.47;;;;;;;9.92;0.00;99655.41;6190886;28;20278;-68
2023/12/24 10:44:29;;;;;;;0.77;0.77;;;;;;;9.93;0.00;99649.00;6191917;28;20510;-68
2023/12/24 10:47:51;;;;;;;0.80;0.80;;;;;;;9.95;0.00;99647.00;6187660;28;20260;-68
2023/12/24 10:51:12;;;;;;;0.80;0.80;;;;;;;10.00;0.00;99646.50;6190511;28;20246;-68
2023/12/24 10:54:34;;;;;;;1.13;1.10;;;;;;;10.04;0.00;99647.88;6187372;28;20313;-68
2023/12/24 10:58:06;;;;;;;0.80;0.80;;;;;;;10.06;0.00;99627.88;6189508;28;20233;-68
2023/12/24 11:01:27;;;;;;;0.73;0.73;;;;;;;10.11;0.00;99655.19;6192690;28;20225;-68
2023/12/24 11:04:49;;;;;;;1.00;0.97;;;;;;;10.11;0.00;99636.34;6196798;28;20229;-68
2023/12/24 11:08:28;;;;;;;1.43;1.33;;;;;;;10.17;0.00;99637.53;6194919;28;20699;-68
2023/12/24 11:11:51;;;;;;;0.50;0.50;;;;;;;10.23;0.00;99618.00;6195764;28;20229;-69
2023/12/24 11:15:44;;;;;;;1.27;0.93;;;;;;;10.23;0.00;99608.09;6197816;28;20233;-69
2023/12/24 11:19:05;;;;;;;0.77;0.77;;;;;;;10.25;0.00;99624.91;6201185;28;20225;-69
2023/12/24 11:22:26;;;;;;;0.60;0.60;;;;;;;10.25;0.00;99597.13;6189859;28;20317;-69
2023/12/24 11:25:50;;;;;;;0.60;0.60;;;;;;;10.29;0.00;99599.34;6199024;28;20347;-69
2023/12/24 11:29:41;;;;;;;0.80;0.80;;;;;;;10.29;0.00;99593.97;6187790;28;20250;-69
2023/12/24 11:33:03;;;;;;;0.50;0.50;;;;;;;10.33;0.00;99587.22;6199002;28;20218;-69
2023/12/24 11:36:26;;;;;;;0.70;0.70;;;;;;;10.34;0.00;99594.31;6186737;28;20238;-69
2023/12/24 11:40:01;;;;;;;0.70;0.70;;;;;;;10.35;0.00;99604.06;6198148;28;20225;-69
2023/12/24 11:43:22;;;;;;;1.60;0.70;;;;;;;10.38;0.00;99592.97;6195246;28;20652;-68
2023/12/24 11:46:43;;;;;;;0.73;0.73;;;;;;;10.41;0.00;99594.47;6193696;28;20313;-68
2023/12/24 11:50:09;;;;;;;1.00;1.00;;;;;;;10.41;0.00;99576.47;6202578;28;20245;-69
2023/12/24 11:53:32;;;;;;;4.50;1.00;;;;;;;10.39;0.00;99583.00;6183009;28;20234;-68
2023/12/24 11:56:53;;;;;;;0.80;0.80;;;;;;;10.34;0.00;99588.94;6191035;28;20234;-69
2023/12/24 12:00:14;;;;;;;2.07;0.70;;;;;;;10.36;0.00;99569.91;6189354;28;20234;-69
2023/12/24 12:03:37;;;;;;;0.90;0.90;;;;;;;10.38;0.00;99573.25;6187880;28;20508;-69
2023/12/24 12:06:59;;;;;;;1.00;1.00;;;;;;;10.37;0.00;99568.88;6191872;28;20737;-69
2023/12/24 12:10:20;;;;;;;2.43;1.50;;;;;;;10.40;0.00;99560.47;6185190;28;20294;-69
2023/12/24 12:13:41;;;;;;;1.17;1.17;;;;;;;10.42;0.00;99544.97;6188845;28;20230;-69
2023/12/24 12:17:02;;;;;;;0.90;0.90;;;;;;;10.42;0.00;99547.66;6193220;28;20313;-69
2023/12/24 12:20:22;;;;;;;1.40;1.30;;;;;;;10.43;0.00;99531.34;6189945;28;20316;-69
2023/12/24 12:23:45;;;;;;;0.97;0.97;;;;;;;10.47;0.00;99518.38;6190652;28;20320;-69
2023/12/24 12:27:06;;;;;;;1.60;1.10;;;;;;;10.47;0.00;99541.78;6190535;28;20643;-68
2023/12/24 12:30:27;;;;;;;1.67;1.23;;;;;;;10.47;0.00;99520.22;6191963;28;20230;-68
2023/12/24 12:33:49;;;;;;;1.97;1.73;;;;;;;10.49;0.00;99519.06;6192046;28;20320;-69
2023/12/24 12:37:10;;;;;;;1.37;1.27;;;;;;;10.50;0.00;99511.78;6189885;28;20352;-69
2023/12/24 12:40:32;;;;;;;1.47;1.37;;;;;;;10.52;0.00;99504.38;6193094;28;20245;-69
2023/12/24 12:43:53;;;;;;;1.80;1.53;;;;;;;10.53;0.00;99508.78;6181787;28;20240;-68
2023/12/24 12:47:14;;;;;;;1.10;1.10;;;;;;;10.54;0.00;99511.28;6195893;28;20229;-69
2023/12/24 12:50:35;;;;;;;3.47;2.07;;;;;;;10.56;0.00;99511.13;6192968;28;20241;-70
2023/12/24 12:53:56;;;;;;;1.27;1.20;;;;;;;10.56;0.00;99503.88;6194523;28;20229;-69
2023/12/24 12:57:30;;;;;;;1.53;1.53;;;;;;;10.55;0.00;99496.81;6196953;28;20221;-69
2023/12/24 13:00:57;;;;;;;1.57;1.47;;;;;;;10.56;0.00;99520.03;6188001;28;20238;-70
2023/12/24 13:04:22;;;;;;;1.10;1.10;;;;;;;10.56;0.00;99509.25;6182870;28;20236;-69
2023/12/24 13:07:43;;;;;;;1.47;1.37;;;;;;;10.56;0.00;99485.00;6193730;28;20517;-69
2023/12/24 13:11:06;;;;;;;1.40;1.40;;;;;;;10.60;0.00;99488.22;6194190;28;20241;-69
2023/12/24 13:14:28;;;;;;;1.43;1.33;;;;;;;10.60;0.00;99493.63;6197895;28;20233;-68
2023/12/24 13:17:50;;;;;;;1.07;1.00;;;;;;;10.60;0.00;99485.53;6185849;28;20238;-68
2023/12/24 13:21:11;;;;;;;2.27;1.83;;;;;;;10.63;0.00;99483.34;6194230;28;20250;-69
2023/12/24 13:24:31;;;;;;;0.90;0.90;;;;;;;10.64;0.00;99485.00;6196285;28;20230;-69
2023/12/24 13:27:52;;;;;;;1.40;1.30;;;;;;;10.64;0.00;99466.13;6192028;28;20257;-70
2023/12/24 13:31:15;;;;;;;1.20;1.20;;;;;;;10.64;0.00;99455.34;6187223;28;20966;-69
2023/12/24 13:34:36;;;;;;;1.23;1.23;;;;;;;10.65;0.00;99448.97;6186627;28;20249;-69
2023/12/24 13:37:57;;;;;;;1.17;1.07;;;;;;;10.68;0.00;99453.19;6176337;28;20225;-69
2023/12/24 13:41:18;;;;;;;1.40;1.30;;;;;;;10.68;0.00;99458.56;6188403;28;20282;-69
2023/12/24 13:44:39;;;;;;;1.17;1.17;;;;;;;10.75;0.00;99462.25;6188114;28;20226;-69
2023/12/24 13:48:03;;;;;;;0.87;0.87;;;;;;;10.78;0.00;99451.13;6184606;28;20416;-70
2023/12/24 13:51:25;;;;;;;2.03;1.83;;;;;;;10.76;0.00;99443.22;6187685;28;20246;-69
2023/12/24 13:54:46;;;;;;;0.93;0.93;;;;;;;10.77;0.00;99422.47;6183287;28;20236;-67
2023/12/24 13:58:08;;;;;;;1.43;1.33;;;;;;;10.78;0.00;99443.91;6199665;28;20229;-69
2023/12/24 14:01:29;;;;;;;4.70;1.37;;;;;;;10.89;0.00;99438.09;6193874;28;20254;-69
2023/12/24 14:04:51;;;;;;;1.90;1.57;;;;;;;10.82;0.00;99420.13;6198863;28;20226;-69
2023/12/24 14:08:12;;;;;;;1.33;1.23;;;;;;;10.86;0.00;99435.78;6193199;28;20233;-69
2023/12/24 14:11:33;;;;;;;1.50;1.40;;;;;;;10.86;0.00;99424.16;6186308;28;20608;-68
2023/12/24 14:14:54;;;;;;;0.90;0.90;;;;;;;10.90;0.00;99409.31;6183344;28;20222;-69
2023/12/24 14:18:14;;;;;;;1.70;1.33;;;;;;;10.90;0.00;99414.69;6191637;28;20704;-69
2023/12/24 14:21:37;;;;;;;0.87;0.87;;;;;;;10.90;0.00;99414.69;6185956;28;20225;-69
2023/12/24 14:24:58;;;;;;;1.37;1.00;;;;;;;10.97;0.00;99405.72;6186301;28;20344;-70
2023/12/24 14:28:19;;;;;;;3.33;1.23;;;;;;;10.95;0.00;99407.75;6185864;28;20222;-69
2023/12/24 14:31:39;;;;;;;0.80;0.80;;;;;;;10.98;0.00;99395.78;6189745;28;20238;-69
2023/12/24 14:35:00;;;;;;;2.00;1.07;;;;;;;10.97;0.00;99394.13;6184593;28;20229;-69
2023/12/24 14:38:22;;;;;;;1.43;1.10;;;;;;;11.00;0.00;99393.75;6185918;28;20259;-70
2023/12/24 14:41:44;;;;;;;2.70;1.63;;;;;;;10.98;0.00;99376.91;6186639;28;20679;-69
2023/12/24 14:45:06;;;;;;;1.07;0.73;;;;;;;10.97;0.00;99377.94;6190816;28;20237;-69
2023/12/24 14:48:28;;;;;;;1.17;1.07;;;;;;;11.00;0.00;99380.28;6191442;28;20650;-68
2023/12/24 14:51:48;;;;;;;1.00;0.70;;;;;;;11.00;0.00;99372.19;6175117;28;20237;-69
2023/12/24 14:55:10;;;;;;;0.80;0.80;;;;;;;10.99;0.00;99374.03;6187015;28;20249;-69
2023/12/24 14:58:31;;;;;;;0.90;0.90;;;;;;;11.04;0.00;99371.66;6194289;28;20229;-69
2023/12/24 15:01:53;;;;;;;1.10;1.00;;;;;;;11.05;0.00;99375.19;6185224;28;20598;-69
2023/12/24 15:05:14;;;;;;;1.10;0.70;;;;;;;11.04;0.00;99360.88;6186423;28;20329;-69
2023/12/24 15:08:35;;;;;;;1.50;1.40;;;;;;;11.04;0.00;99362.72;6186404;28;20249;-69
2023/12/24 15:11:57;;;;;;;1.17;1.17;;;;;;;11.06;0.00;99371.47;6193715;28;20242;-69
2023/12/24 15:15:18;;;;;;;1.27;1.17;;;;;;;11.07;0.00;99360.53;6191809;28;20253;-68
2023/12/24 15:18:39;;;;;;;1.40;1.30;;;;;;;11.05;0.00;99359.03;6189300;28;20230;-69
2023/12/24 15:22:00;;;;;;;2.17;1.27;;;;;;;11.07;0.00;99357.00;6188687;28;20350;-68
2023/12/24 15:25:21;;;;;;;1.03;1.03;;;;;;;11.10;0.00;99348.53;6182480;28;20230;-68
2023/12/24 15:28:43;;;;;;;1.47;1.37;;;;;;;11.10;0.00;99351.22;6190019;28;20226;-68
2023/12/24 15:32:05;;;;;;;1.93;1.23;;;;;;;11.10;0.00;99359.31;6187886;28;20233;-69
2023/12/24 15:35:25;;;;;;;1.43;1.33;;;;;;;11.09;0.00;99333.38;6193616;28;20321;-69
2023/12/24 15:38:46;;;;;;;1.27;1.17;;;;;;;11.12;0.00;99344.63;6189828;28;20604;-68
2023/12/24 15:42:07;;;;;;;1.73;1.30;;;;;;;11.15;0.00;99351.53;6192455;28;20226;-69
2023/12/24 15:45:29;;;;;;;1.60;1.50;;;;;;;11.16;0.00;99337.03;6192200;28;20233;-69
2023/12/24 15:48:50;;;;;;;1.57;1.47;;;;;;;11.18;0.00;99335.84;6186801;28;20312;-68
2023/12/24 15:52:11;;;;;;;1.10;1.10;;;;;;;11.17;0.00;99328.78;6192978;28;20234;-68
2023/12/24 15:55:32;;;;;;;1.90;1.80;;;;;;;11.18;0.00;99321.53;6203017;28;20257;-69
2023/12/24 15:58:53;;;;;;;3.17;1.53;;;;;;;11.17;0.00;99320.69;6199210;28;20226;-69
2023/12/24 16:02:15;;;;;;;1.43;1.33;;;;;;;11.20;0.00;99317.63;6193643;28;20305;-69
2023/12/24 16:05:36;;;;;;;1.57;1.47;;;;;;;11.23;0.00;99324.53;6195131;28;20238;-69